Time;durP1;ratioP1;P1;durP2;ratioP2;P2;SDS_P1;SDS_P2;PMS_P1;PMS_P2;Temp;Humidity;BMP_temperature;BMP_pressure;BME280_temperature;BME280_humidity;BME280_pressure;Samples;Min_cycle;Max_cycle;Signal;HPM_P1;HPM_P2
2022/04/13 00:02:02;;;;;;;7.57;5.07;;;6.00;97.60;;;;;;7373831;19;20320;-70
2022/04/13 00:04:27;;;;;;;7.47;5.05;;;6.00;98.10;;;;;;7380776;19;20320;-70
2022/04/13 00:06:53;;;;;;;6.83;5.13;;;6.00;98.60;;;;;;7381789;19;20339;-70
2022/04/13 00:09:19;;;;;;;7.03;5.35;;;5.90;99.50;;;;;;7379843;19;20329;-70
2022/04/13 00:11:44;;;;;;;6.63;4.97;;;5.90;99.50;;;;;;7378415;19;20368;-70
2022/04/13 00:14:10;;;;;;;6.20;5.40;;;5.80;99.40;;;;;;7380943;19;20320;-70
2022/04/13 00:16:36;;;;;;;7.00;5.03;;;5.90;99.90;;;;;;7379748;19;20352;-69
2022/04/13 00:19:01;;;;;;;8.43;6.05;;;5.80;99.90;;;;;;7381367;19;20344;-70
2022/04/13 00:21:27;;;;;;;6.27;5.17;;;5.80;99.90;;;;;;7379207;19;20351;-70
2022/04/13 00:23:52;;;;;;;7.22;5.47;;;5.70;99.90;;;;;;7381266;19;20338;-70
2022/04/13 00:26:18;;;;;;;8.20;5.90;;;5.60;99.90;;;;;;7386570;19;20354;-70
2022/04/13 00:28:44;;;;;;;7.90;6.23;;;5.60;99.90;;;;;;7384170;19;20333;-70
2022/04/13 00:31:09;;;;;;;7.43;5.82;;;5.50;99.90;;;;;;7375898;19;20308;-70
2022/04/13 00:33:35;;;;;;;8.43;5.83;;;5.50;99.90;;;;;;7386650;19;20309;-70
2022/04/13 00:36:01;;;;;;;6.32;5.30;;;5.40;99.90;;;;;;7382615;19;20341;-70
2022/04/13 00:38:26;;;;;;;8.77;6.27;;;5.40;99.90;;;;;;7382596;19;20328;-70
2022/04/13 00:40:52;;;;;;;7.30;5.70;;;5.40;99.90;;;;;;7377820;19;20869;-70
2022/04/13 00:43:17;;;;;;;8.20;5.40;;;5.40;99.90;;;;;;7382573;19;20328;-70
2022/04/13 00:45:47;;;;;;;7.82;5.43;;;5.30;99.90;;;;;;7380241;19;20336;-70
2022/04/13 00:48:27;;;;;;;6.97;5.22;;;5.30;99.90;;;;;;7383552;19;20348;-70
2022/04/13 00:50:53;;;;;;;5.57;4.93;;;5.30;99.90;;;;;;7383421;19;20895;-70
2022/04/13 00:53:18;;;;;;;6.07;5.35;;;5.30;99.90;;;;;;7386637;19;20316;-70
2022/04/13 00:55:44;;;;;;;7.20;5.63;;;5.20;99.90;;;;;;7383889;19;20363;-70
2022/04/13 00:58:13;;;;;;;8.02;5.80;;;5.20;99.90;;;;;;7384526;19;20325;-70
2022/04/13 01:00:48;;;;;;;6.90;5.63;;;5.20;99.90;;;;;;7379274;19;20344;-70
2022/04/13 01:03:22;;;;;;;7.43;5.80;;;5.10;99.90;;;;;;7274687;19;2005014;-70
2022/04/13 01:05:49;;;;;;;9.25;6.03;;;5.10;99.90;;;;;;7381502;19;20304;-70
2022/04/13 01:08:20;;;;;;;10.48;6.15;;;5.10;99.90;;;;;;7375551;19;21503;-69
2022/04/13 01:10:48;;;;;;;7.25;5.70;;;5.10;99.90;;;;;;7377746;19;20698;-70
2022/04/13 01:13:15;;;;;;;6.47;5.18;;;5.10;99.90;;;;;;7383740;19;20329;-71
2022/04/13 01:15:41;;;;;;;7.03;5.47;;;5.10;99.90;;;;;;7375054;19;20332;-70
2022/04/13 01:18:08;;;;;;;6.65;5.28;;;5.10;99.90;;;;;;7375846;19;20317;-70
2022/04/13 01:20:39;;;;;;;7.40;5.65;;;5.10;99.90;;;;;;7371807;19;20331;-70
2022/04/13 01:23:08;;;;;;;8.75;6.10;;;5.00;99.90;;;;;;7375588;19;20327;-69
2022/04/13 01:25:34;;;;;;;6.32;5.53;;;5.00;99.90;;;;;;7372255;19;20341;-68
2022/04/13 01:28:00;;;;;;;5.87;5.10;;;5.00;99.90;;;;;;7379537;19;20391;-68
2022/04/13 01:30:27;;;;;;;6.27;5.27;;;5.00;99.90;;;;;;7372931;19;20297;-68
2022/04/13 01:32:53;;;;;;;7.85;5.22;;;4.90;99.90;;;;;;7372328;19;20333;-69
2022/04/13 01:35:23;;;;;;;6.75;5.63;;;4.90;99.90;;;;;;7378152;19;20345;-69
2022/04/13 01:37:51;;;;;;;8.52;5.57;;;4.90;99.90;;;;;;7368298;19;20316;-69
2022/04/13 01:40:16;;;;;;;7.55;5.43;;;4.90;99.90;;;;;;7377709;19;20317;-69
2022/04/13 01:42:43;;;;;;;6.00;5.22;;;5.00;99.90;;;;;;7378097;19;20332;-68
2022/04/13 01:45:09;;;;;;;6.70;5.30;;;4.90;99.90;;;;;;7382976;19;20412;-69
2022/04/13 01:47:36;;;;;;;6.93;5.38;;;4.90;99.90;;;;;;7377227;19;20340;-69
2022/04/13 01:50:02;;;;;;;8.95;5.60;;;4.80;99.90;;;;;;7378658;19;20312;-69
2022/04/13 01:52:29;;;;;;;5.80;5.03;;;4.80;99.90;;;;;;7374188;19;20345;-68
2022/04/13 01:54:54;;;;;;;6.72;4.72;;;4.90;99.90;;;;;;7379723;19;20344;-69
2022/04/13 01:57:30;;;;;;;5.75;4.72;;;4.90;99.90;;;;;;7346379;19;20289;-68
2022/04/13 02:00:10;;;;;;;6.53;5.10;;;4.90;99.90;;;;;;7178628;19;2004377;-68
2022/04/13 02:02:40;;;;;;;6.38;5.22;;;4.90;99.90;;;;;;7174536;19;2004431;-69
2022/04/13 02:05:06;;;;;;;5.77;4.90;;;4.80;99.90;;;;;;7378699;19;20305;-69
2022/04/13 02:07:32;;;;;;;7.75;5.00;;;4.80;99.90;;;;;;7378223;19;20329;-69
2022/04/13 02:09:58;;;;;;;6.90;4.57;;;4.80;99.90;;;;;;7383275;19;20395;-69
2022/04/13 02:12:24;;;;;;;5.35;4.72;;;4.90;99.90;;;;;;7372197;19;20339;-69
2022/04/13 02:14:50;;;;;;;6.63;4.83;;;4.90;99.90;;;;;;7378199;19;20332;-68
2022/04/13 02:17:16;;;;;;;6.97;5.22;;;4.90;99.90;;;;;;7383242;19;20377;-69
2022/04/13 02:19:45;;;;;;;5.30;4.20;;;4.90;99.90;;;;;;7380473;19;20332;-69
2022/04/13 02:22:11;;;;;;;6.35;4.50;;;4.80;99.90;;;;;;7379508;19;20313;-69
2022/04/13 02:24:39;;;;;;;6.82;4.90;;;4.90;99.90;;;;;;7382382;19;20314;-69
2022/04/13 02:27:07;;;;;;;5.63;4.50;;;4.80;99.90;;;;;;7381871;19;20340;-69
2022/04/13 02:29:34;;;;;;;6.30;5.20;;;4.80;99.90;;;;;;7382064;19;20313;-69
2022/04/13 02:32:01;;;;;;;8.88;5.65;;;4.80;99.90;;;;;;7379803;19;20313;-69
2022/04/13 02:34:27;;;;;;;4.85;4.35;;;4.70;99.90;;;;;;7379622;19;20352;-69
2022/04/13 02:36:52;;;;;;;5.77;4.50;;;4.70;99.90;;;;;;7382056;19;20864;-68
2022/04/13 02:39:18;;;;;;;7.63;5.28;;;4.60;99.90;;;;;;7384952;19;20370;-69
2022/04/13 02:41:44;;;;;;;9.32;4.70;;;4.60;99.90;;;;;;7379014;19;20352;-69
2022/04/13 02:44:10;;;;;;;6.37;5.07;;;4.60;99.90;;;;;;7380192;19;20320;-70
2022/04/13 02:46:35;;;;;;;5.78;4.28;;;4.50;99.90;;;;;;7378007;19;20380;-69
2022/04/13 02:49:01;;;;;;;8.43;5.00;;;4.50;99.90;;;;;;7380537;19;20348;-69
2022/04/13 02:51:27;;;;;;;7.13;5.00;;;4.40;99.90;;;;;;7379292;19;20320;-68
2022/04/13 02:53:53;;;;;;;7.55;5.20;;;4.40;99.90;;;;;;7376681;19;20348;-69
2022/04/13 02:56:19;;;;;;;5.97;5.17;;;4.30;99.90;;;;;;7380235;19;20308;-69
2022/04/13 02:58:44;;;;;;;7.18;5.60;;;4.30;99.90;;;;;;7382925;19;20321;-69
2022/04/13 03:01:10;;;;;;;7.50;5.33;;;4.20;99.90;;;;;;7376332;19;20359;-69
2022/04/13 03:03:36;;;;;;;6.38;4.82;;;4.20;99.90;;;;;;7379281;19;20305;-69
2022/04/13 03:06:01;;;;;;;7.63;4.97;;;4.20;99.90;;;;;;7381687;19;20316;-69
2022/04/13 03:08:28;;;;;;;7.53;5.40;;;4.20;99.90;;;;;;7371542;19;20317;-69
2022/04/13 03:10:55;;;;;;;11.93;5.63;;;4.20;99.90;;;;;;7371529;19;21036;-70
2022/04/13 03:13:21;;;;;;;7.70;5.47;;;4.10;99.90;;;;;;7379090;19;20321;-68
2022/04/13 03:15:47;;;;;;;8.83;5.43;;;4.10;99.90;;;;;;7380819;19;20341;-68
2022/04/13 03:18:13;;;;;;;7.00;5.78;;;4.10;99.90;;;;;;7378967;19;20324;-69
2022/04/13 03:20:39;;;;;;;8.13;5.90;;;4.10;99.90;;;;;;7375165;19;20333;-68
2022/04/13 03:23:05;;;;;;;5.53;5.00;;;4.10;99.90;;;;;;7380034;19;20305;-68
2022/04/13 03:25:31;;;;;;;8.40;5.53;;;4.10;99.90;;;;;;7379278;19;20319;-68
2022/04/13 03:27:56;;;;;;;6.85;5.72;;;4.10;99.90;;;;;;7380414;19;20355;-69
2022/04/13 03:30:23;;;;;;;7.00;5.55;;;4.10;99.90;;;;;;7376225;19;20681;-68
2022/04/13 03:32:48;;;;;;;8.32;5.43;;;4.10;99.90;;;;;;7373570;19;20321;-68
2022/04/13 03:35:15;;;;;;;7.13;5.10;;;4.10;99.90;;;;;;7379346;19;20336;-68
2022/04/13 03:37:41;;;;;;;5.93;5.07;;;4.10;99.90;;;;;;7381165;19;20317;-68
2022/04/13 03:40:08;;;;;;;6.65;5.20;;;4.10;99.90;;;;;;7378480;19;20377;-69
2022/04/13 03:42:37;;;;;;;7.53;6.15;;;4.10;99.90;;;;;;7377076;19;20341;-68
2022/04/13 03:45:11;;;;;;;9.50;6.10;;;4.10;99.90;;;;;;7378806;19;20308;-68
2022/04/13 03:47:40;;;;;;;6.88;5.15;;;4.10;99.90;;;;;;7272294;19;2006086;-69
2022/04/13 03:50:07;;;;;;;7.50;5.13;;;4.10;99.90;;;;;;7372212;19;20340;-68
2022/04/13 03:52:34;;;;;;;6.60;5.50;;;4.10;99.90;;;;;;7376472;19;20743;-68
2022/04/13 03:55:00;;;;;;;5.70;4.93;;;4.00;99.90;;;;;;7378498;19;20321;-69
2022/04/13 03:57:26;;;;;;;7.15;5.68;;;4.00;99.90;;;;;;7377955;19;20336;-69
2022/04/13 03:59:52;;;;;;;5.68;5.00;;;4.00;99.90;;;;;;7375670;19;20381;-69
2022/04/13 04:02:17;;;;;;;7.47;5.83;;;3.90;99.90;;;;;;7374161;19;20676;-69
2022/04/13 04:04:44;;;;;;;9.02;5.90;;;3.90;99.90;;;;;;7374832;19;20357;-69
2022/04/13 04:07:09;;;;;;;6.38;5.70;;;3.90;99.90;;;;;;7376784;19;20328;-68
2022/04/13 04:09:35;;;;;;;6.57;5.80;;;3.80;99.90;;;;;;7378300;19;20313;-68
2022/04/13 04:12:01;;;;;;;7.70;6.30;;;3.80;99.90;;;;;;7370330;19;21190;-68
2022/04/13 04:14:27;;;;;;;8.13;6.10;;;3.80;99.90;;;;;;7378533;19;20325;-71
2022/04/13 04:16:53;;;;;;;7.30;5.67;;;3.80;99.90;;;;;;7352347;19;20336;-70
2022/04/13 04:19:19;;;;;;;7.88;5.90;;;3.80;99.90;;;;;;7375368;19;20877;-69
2022/04/13 04:21:45;;;;;;;9.80;6.28;;;3.80;99.90;;;;;;7375569;19;20686;-70
2022/04/13 04:24:11;;;;;;;8.88;6.50;;;3.80;99.90;;;;;;7377625;19;20357;-69
2022/04/13 04:26:37;;;;;;;8.65;6.40;;;3.80;99.90;;;;;;7372846;19;20323;-70
2022/04/13 04:29:03;;;;;;;6.75;6.05;;;3.80;99.90;;;;;;7368119;19;20332;-69
2022/04/13 04:34:14;;;;;;;9.80;6.63;;;3.90;99.90;;;;;;7370700;19;20355;-69
2022/04/13 04:36:40;;;;;;;10.52;6.32;;;3.90;99.90;;;;;;7373014;19;20939;-69
2022/04/13 04:39:07;;;;;;;6.93;6.22;;;3.90;99.90;;;;;;7376667;19;20317;-70
2022/04/13 04:41:33;;;;;;;7.60;6.15;;;3.90;99.90;;;;;;7375543;19;20343;-70
2022/04/13 04:44:00;;;;;;;8.52;5.95;;;3.90;99.90;;;;;;7370896;19;20341;-70
2022/04/13 04:46:25;;;;;;;8.60;6.20;;;3.90;99.90;;;;;;7378255;19;20311;-70
2022/04/13 04:48:51;;;;;;;9.23;6.65;;;4.00;99.90;;;;;;7374029;19;20329;-70
2022/04/13 04:51:17;;;;;;;7.33;5.80;;;4.00;99.90;;;;;;7368894;19;20320;-70
2022/04/13 04:53:43;;;;;;;8.23;5.83;;;4.10;99.90;;;;;;7379500;19;20328;-70
2022/04/13 04:56:08;;;;;;;7.20;6.03;;;4.10;99.90;;;;;;7376107;19;20339;-69
2022/04/13 04:58:34;;;;;;;9.70;6.50;;;4.10;99.90;;;;;;7372219;19;20325;-70
2022/04/13 05:01:00;;;;;;;8.18;6.63;;;4.20;99.90;;;;;;7375996;19;20325;-70
2022/04/13 05:03:26;;;;;;;10.73;6.57;;;4.20;99.90;;;;;;7379012;19;20321;-69
2022/04/13 05:05:51;;;;;;;9.35;5.65;;;4.30;99.90;;;;;;7375877;19;20674;-69
2022/04/13 05:08:17;;;;;;;7.67;6.00;;;4.30;99.90;;;;;;7374626;19;20352;-69
2022/04/13 05:10:47;;;;;;;7.38;5.50;;;4.40;99.90;;;;;;7380846;19;20364;-69
2022/04/13 05:13:14;;;;;;;8.63;6.35;;;4.40;99.90;;;;;;7384781;19;20747;-69
2022/04/13 05:15:41;;;;;;;10.30;6.07;;;4.50;99.90;;;;;;7380212;19;20395;-69
2022/04/13 05:18:07;;;;;;;7.45;6.18;;;4.50;99.90;;;;;;7385368;19;20336;-70
2022/04/13 05:20:32;;;;;;;6.40;5.30;;;4.60;99.90;;;;;;7384020;19;20327;-71
2022/04/13 05:22:58;;;;;;;8.10;6.47;;;4.70;99.90;;;;;;7379763;19;20686;-68
2022/04/13 05:25:24;;;;;;;7.90;6.37;;;4.70;99.90;;;;;;7380364;19;20399;-67
2022/04/13 05:27:49;;;;;;;9.38;6.40;;;4.80;99.90;;;;;;7379989;19;20912;-68
2022/04/13 05:30:15;;;;;;;11.68;6.70;;;4.90;99.90;;;;;;7376026;19;20329;-68
2022/04/13 05:32:57;;;;;;;10.55;7.18;;;5.00;99.90;;;;;;7380111;19;20336;-70
2022/04/13 05:35:27;;;;;;;9.77;6.80;;;5.00;99.90;;;;;;7374781;19;20353;-68
2022/04/13 05:37:53;;;;;;;9.70;7.35;;;5.10;99.90;;;;;;7382661;19;20368;-67
2022/04/13 05:40:23;;;;;;;9.60;7.15;;;5.30;99.90;;;;;;7383592;19;20372;-68
2022/04/13 05:42:50;;;;;;;9.88;7.63;;;5.30;99.90;;;;;;7382411;19;20341;-68
2022/04/13 05:45:17;;;;;;;8.85;6.68;;;5.50;99.90;;;;;;7383448;19;20334;-68
2022/04/13 05:47:43;;;;;;;10.87;7.50;;;5.50;99.90;;;;;;7383147;19;20861;-68
2022/04/13 05:50:09;;;;;;;9.55;7.88;;;5.70;99.90;;;;;;7379396;19;20329;-69
2022/04/13 05:52:36;;;;;;;10.25;7.43;;;5.70;99.90;;;;;;7383802;19;20336;-68
2022/04/13 05:55:02;;;;;;;11.57;7.83;;;5.70;99.90;;;;;;7374963;19;20908;-68
2022/04/13 05:57:27;;;;;;;9.35;6.57;;;5.80;99.90;;;;;;7375304;19;20321;-69
2022/04/13 05:59:53;;;;;;;11.25;7.50;;;5.80;99.90;;;;;;7384006;19;20336;-69
2022/04/13 06:02:20;;;;;;;12.25;7.43;;;5.90;99.90;;;;;;7378121;19;20392;-69
2022/04/13 06:04:45;;;;;;;10.35;7.60;;;5.90;99.90;;;;;;7378389;19;20340;-68
2022/04/13 06:07:11;;;;;;;9.80;7.78;;;6.00;99.90;;;;;;7383960;19;20325;-69
2022/04/13 06:09:37;;;;;;;12.30;7.80;;;6.10;99.90;;;;;;7381487;19;20387;-68
2022/04/13 06:12:03;;;;;;;11.97;7.57;;;6.10;99.90;;;;;;7382000;19;20682;-69
2022/04/13 06:14:29;;;;;;;9.60;7.50;;;6.20;99.90;;;;;;7380797;19;20341;-68
2022/04/13 06:16:54;;;;;;;10.98;7.88;;;6.20;99.90;;;;;;7384163;19;20694;-69
2022/04/13 06:19:22;;;;;;;11.27;7.67;;;6.30;99.90;;;;;;7384192;19;20304;-69
2022/04/13 06:21:48;;;;;;;10.93;8.23;;;6.40;99.90;;;;;;7375634;19;20737;-69
2022/04/13 06:24:14;;;;;;;11.02;7.50;;;6.50;99.90;;;;;;7379742;19;20337;-68
2022/04/13 06:26:40;;;;;;;10.57;7.50;;;6.60;99.90;;;;;;7382120;19;20837;-68
2022/04/13 06:29:06;;;;;;;11.13;6.93;;;6.70;99.90;;;;;;7382064;19;20529;-68
2022/04/13 06:31:31;;;;;;;10.07;7.37;;;6.90;99.90;;;;;;7377670;19;20337;-68
2022/04/13 06:33:57;;;;;;;8.50;7.03;;;7.00;99.90;;;;;;7381251;19;20332;-71
2022/04/13 06:36:23;;;;;;;11.23;7.13;;;7.20;99.90;;;;;;7378591;19;20317;-69
2022/04/13 06:38:49;;;;;;;9.88;7.68;;;7.30;99.90;;;;;;7340020;19;20312;-70
2022/04/13 06:41:15;;;;;;;9.25;6.57;;;7.40;99.90;;;;;;7380648;19;20321;-69
2022/04/13 06:43:40;;;;;;;8.95;6.75;;;7.50;99.90;;;;;;7381463;19;20435;-69
2022/04/13 06:46:06;;;;;;;9.20;7.13;;;7.80;99.90;;;;;;7379119;19;20305;-69
2022/04/13 06:48:35;;;;;;;12.63;7.45;;;7.90;99.90;;;;;;7378262;19;20349;-70
2022/04/13 06:51:02;;;;;;;10.18;8.05;;;8.10;99.90;;;;;;7376742;19;20323;-70
2022/04/13 06:53:29;;;;;;;10.38;7.50;;;8.20;99.90;;;;;;7370815;19;20337;-69
2022/04/13 06:55:55;;;;;;;10.20;7.68;;;8.30;99.90;;;;;;7375568;19;20345;-69
2022/04/13 06:58:21;;;;;;;8.87;6.87;;;8.50;99.90;;;;;;7379867;19;20892;-71
2022/04/13 07:00:47;;;;;;;11.68;7.35;;;8.60;99.90;;;;;;7373584;19;20972;-70
2022/04/13 07:03:13;;;;;;;12.02;7.53;;;8.70;99.90;;;;;;7376868;19;20316;-70
2022/04/13 07:05:39;;;;;;;11.18;7.45;;;8.90;99.90;;;;;;7379181;19;20329;-71
2022/04/13 07:08:05;;;;;;;8.37;6.90;;;9.00;99.90;;;;;;7377980;19;20301;-69
2022/04/13 07:10:32;;;;;;;8.82;6.60;;;9.10;99.90;;;;;;7379920;19;20353;-69
2022/04/13 07:12:58;;;;;;;8.40;6.82;;;9.40;99.90;;;;;;7381083;19;20313;-72
2022/04/13 07:15:24;;;;;;;11.88;7.65;;;9.50;99.90;;;;;;7381397;19;20329;-69
2022/04/13 07:17:50;;;;;;;9.10;6.82;;;9.80;99.90;;;;;;7379452;19;20336;-70
2022/04/13 07:20:17;;;;;;;8.13;6.97;;;10.00;99.90;;;;;;7381981;19;20316;-71
2022/04/13 07:22:44;;;;;;;9.70;6.82;;;10.20;99.90;;;;;;7375642;19;20343;-70
2022/04/13 07:25:10;;;;;;;8.52;6.80;;;10.40;99.90;;;;;;7378665;19;20339;-69
2022/04/13 07:27:36;;;;;;;11.75;6.85;;;10.60;99.90;;;;;;7381374;19;20347;-70
2022/04/13 07:30:02;;;;;;;8.33;6.90;;;10.70;99.90;;;;;;7378578;19;20341;-70
2022/04/13 07:32:28;;;;;;;14.20;7.37;;;10.90;99.90;;;;;;7373072;19;20324;-70
2022/04/13 07:34:54;;;;;;;8.52;7.10;;;11.10;99.90;;;;;;7377787;19;20445;-70
2022/04/13 07:37:19;;;;;;;10.65;6.88;;;11.40;99.90;;;;;;7376413;19;20795;-70
2022/04/13 07:39:46;;;;;;;12.02;7.55;;;11.70;99.90;;;;;;7378645;19;20389;-70
2022/04/13 07:42:11;;;;;;;10.20;6.83;;;11.80;99.90;;;;;;7376603;19;20419;-70
2022/04/13 07:44:37;;;;;;;11.23;7.23;;;11.90;99.90;;;;;;7376244;19;20325;-70
2022/04/13 07:47:03;;;;;;;10.20;7.18;;;12.10;99.90;;;;;;7379875;19;20348;-71
2022/04/13 07:49:30;;;;;;;10.00;7.13;;;12.30;99.90;;;;;;7374857;19;20405;-71
2022/04/13 07:52:00;;;;;;;11.43;7.50;;;12.40;99.90;;;;;;7372521;19;20336;-70
2022/04/13 07:54:25;;;;;;;8.52;7.28;;;12.50;99.90;;;;;;7373386;19;20340;-71
2022/04/13 07:56:51;;;;;;;10.87;6.80;;;12.80;99.90;;;;;;7379768;19;20338;-71
2022/04/13 07:59:17;;;;;;;8.43;6.50;;;12.90;99.90;;;;;;7380402;19;20315;-70
2022/04/13 08:01:43;;;;;;;10.75;6.95;;;13.10;99.90;;;;;;7378862;19;20340;-71
2022/04/13 08:04:09;;;;;;;8.85;6.95;;;13.40;99.90;;;;;;7379602;19;20324;-71
2022/04/13 08:06:35;;;;;;;10.40;7.43;;;13.40;99.90;;;;;;7375034;19;20381;-71
2022/04/13 08:09:00;;;;;;;9.00;6.57;;;13.50;99.90;;;;;;7372386;19;20320;-70
2022/04/13 08:11:26;;;;;;;10.27;6.80;;;13.70;99.90;;;;;;7375507;19;20324;-70
2022/04/13 08:13:52;;;;;;;8.38;6.30;;;13.80;99.90;;;;;;7378044;19;20918;-70
2022/04/13 08:16:17;;;;;;;9.00;6.23;;;14.00;99.90;;;;;;7380189;19;20346;-70
2022/04/13 08:18:44;;;;;;;10.45;6.75;;;14.20;99.90;;;;;;7379228;19;20361;-70
2022/04/13 08:21:10;;;;;;;10.48;6.47;;;14.40;99.90;;;;;;7375862;19;20796;-70
2022/04/13 08:23:35;;;;;;;10.57;6.15;;;14.60;99.90;;;;;;7362876;19;20419;-71
2022/04/13 08:26:03;;;;;;;7.78;5.88;;;14.90;99.90;;;;;;7342862;19;20411;-70
2022/04/13 08:28:30;;;;;;;7.33;5.00;;;15.00;99.90;;;;;;7371436;19;20372;-70
2022/04/13 08:30:56;;;;;;;7.28;5.68;;;15.30;99.90;;;;;;7378443;19;20708;-70
2022/04/13 08:33:22;;;;;;;6.83;5.07;;;15.40;99.90;;;;;;7382375;19;20328;-70
2022/04/13 08:35:47;;;;;;;10.45;5.22;;;15.40;99.40;;;;;;7379188;19;20305;-71
2022/04/13 08:38:13;;;;;;;6.93;5.07;;;15.60;99.40;;;;;;7380925;19;20320;-73
2022/04/13 08:40:55;;;;;;;5.80;5.13;;;15.60;98.90;;;;;;7376344;19;20411;-72
2022/04/13 08:43:25;;;;;;;8.25;5.20;;;15.70;98.40;;;;;;7378085;19;20321;-70
2022/04/13 08:45:56;;;;;;;5.93;4.78;;;15.90;97.50;;;;;;7382954;19;20337;-71
2022/04/13 08:48:24;;;;;;;7.30;5.10;;;16.00;96.90;;;;;;7385138;19;21080;-70
2022/04/13 08:50:59;;;;;;;5.82;4.55;;;16.10;96.20;;;;;;7381858;19;20348;-71
2022/04/13 08:53:28;;;;;;;6.25;4.35;;;16.20;96.60;;;;;;7384599;19;20440;-71
2022/04/13 08:55:54;;;;;;;7.85;4.50;;;16.40;96.50;;;;;;7381244;19;20882;-71
2022/04/13 08:58:28;;;;;;;7.13;4.73;;;16.60;96.70;;;;;;7387335;19;20319;-71
2022/04/13 09:00:55;;;;;;;6.28;4.63;;;16.70;94.80;;;;;;7382298;19;20412;-71
2022/04/13 09:03:41;;;;;;;6.75;4.47;;;16.80;93.50;;;;;;7377342;19;20318;-70
2022/04/13 09:06:07;;;;;;;5.25;3.85;;;16.80;94.40;;;;;;7384192;19;20361;-70
2022/04/13 09:08:42;;;;;;;5.93;4.00;;;16.90;94.00;;;;;;7381150;19;20337;-71
2022/04/13 09:11:07;;;;;;;5.78;3.83;;;17.10;92.80;;;;;;7382230;19;20321;-70
2022/04/13 09:13:33;;;;;;;4.78;3.78;;;17.20;92.50;;;;;;7385907;19;20311;-70
2022/04/13 09:15:58;;;;;;;4.27;3.07;;;17.30;92.00;;;;;;7385718;19;20344;-70
2022/04/13 09:18:24;;;;;;;4.77;3.80;;;17.50;92.20;;;;;;7390388;19;20978;-70
2022/04/13 09:20:50;;;;;;;3.97;3.40;;;17.60;90.30;;;;;;7385312;19;20381;-72
2022/04/13 09:23:16;;;;;;;4.73;3.57;;;17.70;89.10;;;;;;7384718;19;20317;-71
2022/04/13 09:25:41;;;;;;;4.75;3.35;;;17.70;90.20;;;;;;7381518;19;20344;-71
2022/04/13 09:28:07;;;;;;;4.60;3.00;;;17.90;89.20;;;;;;7384845;19;20353;-71
2022/04/13 09:30:33;;;;;;;6.10;4.00;;;18.00;90.40;;;;;;7384377;19;20380;-71
2022/04/13 09:32:59;;;;;;;4.57;3.53;;;18.10;87.80;;;;;;7387956;19;20325;-71
2022/04/13 09:35:25;;;;;;;4.60;3.67;;;18.10;87.40;;;;;;7382923;19;20357;-71
2022/04/13 09:37:50;;;;;;;5.33;4.10;;;18.10;86.80;;;;;;7387022;19;20329;-71
2022/04/13 09:40:45;;;;;;;4.45;3.20;;;18.30;84.70;;;;;;7383557;19;20860;-71
2022/04/13 09:43:17;;;;;;;5.88;3.60;;;18.50;84.50;;;;;;7279403;19;2020053;-71
2022/04/13 09:45:45;;;;;;;5.38;3.58;;;18.70;83.90;;;;;;7384012;19;20446;-72
2022/04/13 09:48:12;;;;;;;7.68;3.88;;;18.90;82.50;;;;;;7386182;19;20308;-71
2022/04/13 09:50:37;;;;;;;7.40;4.00;;;19.00;82.00;;;;;;7383092;19;21132;-71
2022/04/13 09:53:05;;;;;;;5.43;3.77;;;19.00;80.70;;;;;;7385159;19;20320;-71
2022/04/13 09:55:36;;;;;;;5.22;3.70;;;19.20;81.60;;;;;;7382017;19;21364;-71
2022/04/13 09:58:05;;;;;;;5.33;3.50;;;19.40;78.10;;;;;;7381490;19;20349;-71
2022/04/13 10:00:31;;;;;;;6.28;3.70;;;19.80;82.10;;;;;;7381812;19;20909;-71
2022/04/13 10:03:09;;;;;;;5.77;3.80;;;19.80;78.30;;;;;;7382520;19;20328;-71
2022/04/13 10:05:35;;;;;;;6.35;3.72;;;20.20;78.40;;;;;;7283229;19;2004289;-73
2022/04/13 10:08:10;;;;;;;5.53;3.80;;;20.30;77.10;;;;;;7383235;19;20344;-72
2022/04/13 10:10:40;;;;;;;5.18;3.30;;;20.50;76.60;;;;;;7382267;19;20349;-72
2022/04/13 10:13:06;;;;;;;5.18;3.75;;;20.80;76.50;;;;;;7384290;19;20329;-72
2022/04/13 10:15:31;;;;;;;5.00;4.10;;;21.00;76.30;;;;;;7384444;19;20889;-72
2022/04/13 10:18:00;;;;;;;5.17;3.60;;;21.10;74.40;;;;;;7383907;19;20351;-72
2022/04/13 10:20:41;;;;;;;5.97;3.70;;;21.20;74.70;;;;;;7382993;19;20336;-74
2022/04/13 10:23:07;;;;;;;3.45;3.10;;;21.60;73.90;;;;;;7383585;19;20418;-72
2022/04/13 10:25:32;;;;;;;6.00;4.03;;;21.70;72.00;;;;;;7383610;19;20670;-72
2022/04/13 10:27:59;;;;;;;3.72;3.10;;;21.60;67.50;;;;;;7383672;19;20759;-72
2022/04/13 10:30:34;;;;;;;3.92;3.08;;;21.80;69.70;;;;;;7384995;19;20324;-73
2022/04/13 10:33:04;;;;;;;6.07;3.25;;;22.00;71.50;;;;;;7384828;19;20297;-73
2022/04/13 10:35:31;;;;;;;3.33;2.97;;;22.10;70.30;;;;;;7381055;19;20309;-73
2022/04/13 10:37:56;;;;;;;7.68;3.30;;;22.00;69.50;;;;;;7382939;19;20349;-72
2022/04/13 10:40:26;;;;;;;3.53;3.00;;;22.30;69.30;;;;;;7381052;19;20330;-73
2022/04/13 10:42:52;;;;;;;3.85;3.20;;;22.50;65.40;;;;;;7381800;19;20316;-73
2022/04/13 10:45:18;;;;;;;3.83;3.35;;;22.60;61.30;;;;;;7383510;19;20861;-72
2022/04/13 10:47:48;;;;;;;8.50;3.33;;;22.50;65.50;;;;;;7382812;19;20448;-72
2022/04/13 10:50:14;;;;;;;4.22;3.20;;;22.60;63.50;;;;;;7381536;19;20321;-72
2022/04/13 10:52:42;;;;;;;5.30;3.20;;;23.20;62.90;;;;;;7384147;19;20321;-73
2022/04/13 10:55:10;;;;;;;5.30;3.00;;;23.40;61.90;;;;;;7385718;19;20312;-72
2022/04/13 10:57:46;;;;;;;4.63;3.25;;;23.40;58.40;;;;;;7383558;19;20670;-73
2022/04/13 11:00:14;;;;;;;3.70;3.30;;;23.10;59.50;;;;;;7279341;19;2004498;-73
2022/04/13 11:02:46;;;;;;;4.55;3.28;;;23.10;57.70;;;;;;7381247;19;20377;-73
2022/04/13 11:05:12;;;;;;;3.90;2.80;;;23.20;58.50;;;;;;7381367;19;20344;-72
2022/04/13 11:07:37;;;;;;;5.03;3.40;;;23.60;59.20;;;;;;7382405;19;20400;-73
2022/04/13 11:10:03;;;;;;;4.68;3.17;;;23.30;56.80;;;;;;7380751;19;20323;-73
2022/04/13 11:12:29;;;;;;;3.08;2.75;;;23.70;55.70;;;;;;7381819;19;20308;-73
2022/04/13 11:14:56;;;;;;;5.33;2.90;;;23.90;59.80;;;;;;7359289;19;20359;-73
2022/04/13 11:17:22;;;;;;;3.47;2.80;;;24.30;59.50;;;;;;7381787;19;20316;-73
2022/04/13 11:19:47;;;;;;;5.28;3.00;;;24.30;55.20;;;;;;7382723;19;20710;-73
2022/04/13 11:22:15;;;;;;;3.43;3.00;;;24.50;56.40;;;;;;7381316;19;20316;-72
2022/04/13 11:24:45;;;;;;;6.03;3.22;;;24.30;54.60;;;;;;7381523;19;20328;-72
2022/04/13 11:27:11;;;;;;;3.93;3.20;;;24.50;57.00;;;;;;7381651;19;20311;-73
2022/04/13 11:29:55;;;;;;;6.07;3.08;;;24.70;55.00;;;;;;7386268;19;20412;-73
2022/04/13 11:32:24;;;;;;;4.22;2.90;;;24.80;55.60;;;;;;7279006;19;2004508;-73
2022/04/13 11:34:50;;;;;;;3.40;2.60;;;25.00;55.30;;;;;;7381917;19;20357;-73
2022/04/13 11:37:17;;;;;;;4.00;3.00;;;25.30;53.30;;;;;;7381413;19;20309;-73
2022/04/13 11:39:49;;;;;;;4.22;3.20;;;25.40;51.20;;;;;;7381207;19;21047;-73
2022/04/13 11:42:20;;;;;;;5.03;3.40;;;25.30;53.30;;;;;;7379647;19;20322;-72
2022/04/13 11:44:50;;;;;;;7.45;3.67;;;25.00;50.10;;;;;;7279333;19;2004373;-73
2022/04/13 11:47:16;;;;;;;5.32;3.10;;;25.00;52.40;;;;;;7378875;19;20324;-72
2022/04/13 11:50:03;;;;;;;5.60;2.95;;;25.10;52.50;;;;;;7380230;19;20377;-73
2022/04/13 11:52:46;;;;;;;6.63;3.28;;;25.40;53.70;;;;;;7381287;19;20741;-73
2022/04/13 11:55:25;;;;;;;4.47;3.03;;;25.90;52.00;;;;;;7376918;19;20442;-73
2022/04/13 11:58:01;;;;;;;6.47;3.05;;;26.20;52.10;;;;;;7379355;19;20325;-73
2022/04/13 12:00:42;;;;;;;4.22;3.35;;;26.50;52.50;;;;;;7380386;19;20309;-73
2022/04/13 12:03:14;;;;;;;3.30;2.83;;;26.50;50.00;;;;;;7378102;19;20787;-74
2022/04/13 12:05:41;;;;;;;6.00;2.75;;;26.80;49.00;;;;;;7379548;19;20320;-73
2022/04/13 12:08:14;;;;;;;4.40;3.08;;;26.60;50.10;;;;;;7379345;19;20424;-73
2022/04/13 12:10:44;;;;;;;3.60;2.90;;;26.50;48.30;;;;;;7374702;19;20935;-74
2022/04/13 12:13:10;;;;;;;4.88;2.83;;;26.90;50.80;;;;;;7376797;19;20347;-73
2022/04/13 12:15:46;;;;;;;2.40;2.20;;;26.60;46.50;;;;;;7375052;19;20332;-74
2022/04/13 12:18:12;;;;;;;4.90;2.90;;;26.80;48.70;;;;;;7377570;19;20347;-73
2022/04/13 12:20:37;;;;;;;4.25;2.70;;;26.90;49.90;;;;;;7377878;19;20305;-73
2022/04/13 12:23:23;;;;;;;3.45;2.65;;;27.00;48.00;;;;;;7380254;19;20396;-72
2022/04/13 12:25:54;;;;;;;3.92;2.97;;;27.10;44.80;;;;;;7272876;19;2004383;-72
2022/04/13 12:28:22;;;;;;;2.97;2.67;;;27.30;48.10;;;;;;7384295;19;20307;-72
2022/04/13 12:31:02;;;;;;;4.28;2.42;;;27.40;46.20;;;;;;7381375;19;20357;-71
2022/04/13 12:33:28;;;;;;;3.67;3.20;;;27.30;45.90;;;;;;7379635;19;20325;-71
2022/04/13 12:36:14;;;;;;;4.50;3.07;;;27.10;47.20;;;;;;7375848;19;20340;-72
2022/04/13 12:38:43;;;;;;;3.45;2.85;;;26.90;47.20;;;;;;7377975;19;20983;-72
2022/04/13 12:41:10;;;;;;;3.75;2.90;;;26.70;46.10;;;;;;7376924;19;20352;-72
2022/04/13 12:43:37;;;;;;;3.45;2.60;;;26.50;46.40;;;;;;7379532;19;20301;-72
2022/04/13 12:46:19;;;;;;;4.75;2.72;;;26.60;47.50;;;;;;7378069;19;20374;-72
2022/04/13 12:48:55;;;;;;;2.90;2.60;;;27.20;48.60;;;;;;7378948;19;20333;-72
2022/04/13 12:51:21;;;;;;;4.10;2.35;;;27.70;50.70;;;;;;7375834;19;20344;-71
2022/04/13 12:53:49;;;;;;;3.25;2.45;;;27.80;44.80;;;;;;7376113;19;20396;-72
2022/04/13 12:56:16;;;;;;;2.40;2.20;;;27.00;45.70;;;;;;7374450;19;20442;-71